Overview Statistics Trail Chart Weather Telemetry Raw packets
 

This is the latest recevied weather packets stored in our database for station/object KB3FKJ. If no packets are shown the sender has not sent any weather packets the latest 10 day(s).

<< 1 2 3 4 5 6 7 >>
Time Temp. Humidity Pressure Rain* Wind** Luminosity Snow
1788529459 23.33° C 81% 1015.5 hPa 0 mm - 88 W/m² -
1788529165 23.33° C 82% 1015.7 hPa 0 mm - 74 W/m² -
1788528854 22.78° C 82% 1015.7 hPa 0 mm - 82 W/m² -
1788528549 22.78° C 82% 1015.5 hPa 0 mm - 48 W/m² -
1788528245 22.78° C 85% 1015.5 hPa 0 mm - 57 W/m² -
1788527944 22.22° C 87% 1015.5 hPa 0 mm - 81 W/m² -
1788527639 22.22° C 85% 1015.6 hPa 0 mm - 54 W/m² -
1788527335 22.22° C 87% 1015.7 hPa 0 mm - 86 W/m² -
1788527034 22.22° C 86% 1015.7 hPa 0 mm - 64 W/m² -
1788526729 22.22° C 86% 1015.8 hPa 0 mm - 58 W/m² -
1788526425 22.22° C 87% 1015.7 hPa 0 mm - 89 W/m² -
1788526124 22.22° C 87% 1015.8 hPa 0 mm - 65 W/m² -
1788525821 21.67° C 87% 1015.8 hPa 0 mm - 55 W/m² -
1788525516 22.22° C 87% 1015.7 hPa 0 mm - 66 W/m² -
1788525212 22.22° C 86% 1015.8 hPa 0 mm - 51 W/m² -
1788524906 22.22° C 87% 1016 hPa 0 mm - 54 W/m² -
1788524601 22.22° C 87% 1015.8 hPa 0 mm - 51 W/m² -
1788524296 21.67° C 88% 1015.9 hPa 0 mm - 62 W/m² -
1788523992 21.67° C 88% 1016 hPa 0 mm - 47 W/m² -
1788523689 21.11° C 89% 1015.7 hPa 0 mm - 48 W/m² -
1788523384 21.11° C 91% 1015.7 hPa 0 mm - 38 W/m² -
1788523079 21.11° C 90% 1015.8 hPa 0 mm - 29 W/m² -
1788522774 21.11° C 90% 1015.8 hPa 0 mm - 24 W/m² -
1788522469 21.11° C 90% 1015.7 hPa 0 mm - 25 W/m² -
1788522169 21.11° C 90% 1015.9 hPa 0 mm - 21 W/m² -

* Rain latest hour (hover to see other rain measurements)
** Current wind speed in m/s (hover to see current wind gust speed)